Castleton, Vermont
Current Conditions -  °F | °C
As of 12:15 AM on Saturday 25 Oct 2014 (Local Time) from KRUT Reporting Station
Clear Clear  
Wind Chill: 41°   Ceiling: Unl
Heat Index: 41°   Visibility: 8mi
Dew Point: 39°   Wind: 3mph
Humidity: 93%   Direction: 190°S
Pressure: 29.83"   Gusts: NA
Location:  43.61°N, 73.18°W
Report Text: KRUT 250415Z 19003KT 8SM CLR 05/04 A2983 RMK AO1
Loading
Personal Weather Stations






























Interactive Weather Map New forecast layout! Learn more

10-Day Weather Forecast

Advertisements
Track Severe Weather on mobile